Time;durP1;ratioP1;P1;durP2;ratioP2;P2;SDS_P1;SDS_P2;PMS_P1;PMS_P2;Temp;Humidity;BMP_temperature;BMP_pressure;BME280_temperature;BME280_humidity;BME280_pressure;Samples;Min_cycle;Max_cycle;Signal;HPM_P1;HPM_P2
2023/01/20 00:00:33;;;;;;;;;22.00;21.75;;;;;6.44;67.08;100730.59;2071725;28;46357;-63
2023/01/20 00:01:36;;;;;;;;;22.75;22.00;;;;;6.44;67.09;100725.31;2075872;28;46093;-64
2023/01/20 00:02:36;;;;;;;;;20.40;18.20;;;;;6.44;66.82;100735.00;2071426;28;46998;-64
2023/01/20 00:03:38;;;;;;;;;26.00;24.25;;;;;6.44;67.01;100733.22;2096390;27;46614;-64
2023/01/20 00:04:38;;;;;;;;;26.60;25.00;;;;;6.43;67.09;100735.88;2107136;27;46647;-64
2023/01/20 00:05:38;;;;;;;;;23.75;21.25;;;;;6.43;66.98;100739.38;2070192;28;46260;-65
2023/01/20 00:06:39;;;;;;;;;25.25;22.75;;;;;6.42;67.19;100740.28;2070528;28;46618;-65
2023/01/20 00:07:39;;;;;;;;;21.75;20.25;;;;;6.43;66.92;100736.75;2071580;28;45998;-65
2023/01/20 00:08:39;;;;;;;;;18.75;17.00;;;;;6.43;67.03;100739.38;2063520;28;46685;-65
2023/01/20 00:09:40;;;;;;;;;24.50;23.00;;;;;6.44;66.95;100748.19;2068593;28;46509;-65
2023/01/20 00:10:40;;;;;;;;;22.75;21.25;;;;;6.44;67.27;100740.25;2077586;27;46523;-64
2023/01/20 00:11:40;;;;;;;;;19.50;19.50;;;;;6.45;67.30;100742.91;2065946;28;46736;-65
2023/01/20 00:12:41;;;;;;;;;26.00;21.25;;;;;6.45;66.92;100745.53;2062320;28;45089;-65
2023/01/20 00:13:41;;;;;;;;;24.75;23.50;;;;;6.46;66.58;100744.66;2062174;28;46315;-64
2023/01/20 00:14:42;;;;;;;;;20.75;20.75;;;;;6.46;67.17;100747.28;2069457;28;46556;-65
2023/01/20 00:15:42;;;;;;;;;20.50;20.25;;;;;6.49;66.90;100754.31;2077815;27;47308;-64
2023/01/20 00:16:42;;;;;;;;;21.25;21.25;;;;;6.47;67.06;100749.03;2064232;28;46311;-65
2023/01/20 00:17:43;;;;;;;;;22.75;20.50;;;;;6.49;67.10;100757.84;2061872;28;46904;-65
2023/01/20 00:18:43;;;;;;;;;21.00;21.00;;;;;6.48;66.79;100753.44;2061890;28;46376;-64
2023/01/20 00:19:43;;;;;;;;;25.75;21.00;;;;;6.48;66.81;100749.94;2061816;28;46582;-64
2023/01/20 00:20:44;;;;;;;;;26.00;22.75;;;;;6.49;66.78;100751.69;2062254;28;45845;-66
2023/01/20 00:21:44;;;;;;;;;24.75;23.25;;;;;6.48;67.04;100756.09;2061551;28;46584;-64
2023/01/20 00:22:44;;;;;;;;;22.50;22.00;;;;;6.47;66.73;100753.44;2062476;28;46871;-65
2023/01/20 00:23:46;;;;;;;;;19.00;18.00;;;;;6.45;66.70;100756.06;2061995;28;46547;-64
2023/01/20 00:24:47;;;;;;;;;14.20;13.00;;;;;6.46;66.94;100760.47;2061600;28;46064;-64
2023/01/20 00:25:47;;;;;;;;;23.25;20.00;;;;;6.45;67.00;100766.63;2061774;28;45696;-62
2023/01/20 00:26:47;;;;;;;;;20.50;19.25;;;;;6.46;66.83;100760.47;2061895;28;46034;-63
2023/01/20 00:27:52;;;;;;;;;19.25;19.00;;;;;6.45;66.64;100771.88;2060599;27;46613;-65
2023/01/20 00:28:54;;;;;;;;;20.20;19.20;;;;;6.46;66.34;100764.84;2056158;28;46676;-63
2023/01/20 00:29:54;;;;;;;;;19.20;17.40;;;;;6.45;66.64;100771.00;2051603;28;48277;-66
2023/01/20 00:30:54;;;;;;;;;24.50;22.00;;;;;6.44;66.43;100772.78;2057518;28;46037;-64
2023/01/20 00:31:54;;;;;;;;;16.25;16.25;;;;;6.43;66.83;100775.41;2061896;28;46408;-64
2023/01/20 00:32:55;;;;;;;;;21.00;20.25;;;;;6.42;66.93;100774.53;2065208;28;46220;-63
2023/01/20 00:33:57;;;;;;;;;15.75;15.75;;;;;6.41;66.68;100780.69;2072189;28;46577;-64
2023/01/20 00:34:58;;;;;;;;;23.40;20.80;;;;;6.40;66.29;100780.72;2078427;28;45662;-65
2023/01/20 00:35:59;;;;;;;;;20.50;20.50;;;;;6.38;66.50;100782.47;2072217;28;46615;-63
2023/01/20 00:37:00;;;;;;;;;18.00;16.60;;;;;6.35;66.64;100788.66;2069064;27;46611;-65
2023/01/20 00:38:00;;;;;;;;;22.25;19.25;;;;;6.33;66.31;100784.25;2061890;28;46253;-63
2023/01/20 00:39:01;;;;;;;;;22.75;20.50;;;;;6.33;66.28;100782.47;2065421;28;45573;-65
2023/01/20 00:40:02;;;;;;;;;21.00;20.00;;;;;6.33;66.42;100786.88;2070300;28;45727;-64
2023/01/20 00:41:03;;;;;;;;;17.75;17.75;;;;;6.32;66.76;100782.50;2062175;28;45748;-64
2023/01/20 00:42:03;;;;;;;;;20.25;19.75;;;;;6.31;66.59;100788.63;2062004;28;46418;-64
2023/01/20 00:43:03;;;;;;;;;22.25;21.00;;;;;6.30;66.66;100786.88;2045282;28;46021;-64
2023/01/20 00:44:04;;;;;;;;;20.25;17.50;;;;;6.29;66.47;100793.03;2045558;28;46290;-64
2023/01/20 00:45:05;;;;;;;;;19.50;16.50;;;;;6.28;66.58;100789.53;2061425;28;46296;-65
2023/01/20 00:46:06;;;;;;;;;20.75;18.75;;;;;6.26;66.16;100791.31;2062418;28;46953;-64
2023/01/20 00:47:06;;;;;;;;;18.20;16.40;;;;;6.26;66.26;100800.97;2066176;28;45931;-64
2023/01/20 00:48:06;;;;;;;;;21.75;18.50;;;;;6.23;66.20;100791.31;2071490;28;46724;-65
2023/01/20 00:49:09;;;;;;;;;9.75;9.75;;;;;6.23;66.15;100793.97;2070744;28;46430;-65
2023/01/20 00:50:09;;;;;;;;;21.00;20.00;;;;;6.21;66.44;100793.06;2071022;28;48326;-64
2023/01/20 00:51:10;;;;;;;;;20.25;17.00;;;;;6.21;66.50;100798.31;2070932;28;45871;-63
2023/01/20 00:52:10;;;;;;;;;17.75;16.50;;;;;6.23;66.30;100798.34;2100001;27;46548;-66
2023/01/20 00:53:11;;;;;;;;;20.25;19.00;;;;;6.24;66.39;100800.09;2102347;27;46382;-64
2023/01/20 00:54:11;;;;;;;;;24.50;20.00;;;;;6.26;66.57;100799.22;2079072;27;46465;-64
2023/01/20 00:55:12;;;;;;;;;20.50;17.75;;;;;6.27;66.07;100805.34;2085187;28;45614;-64
2023/01/20 00:56:12;;;;;;;;;19.00;19.00;;;;;6.27;66.31;100800.09;2100451;28;46368;-64
2023/01/20 00:57:12;;;;;;;;;12.25;10.00;;;;;6.26;66.43;100803.59;2108143;27;46619;-64
2023/01/20 00:58:13;;;;;;;;;21.00;15.75;;;;;6.24;66.30;100808.88;2094869;28;45908;-64
2023/01/20 00:59:13;;;;;;;;;22.50;22.50;;;;;6.25;66.42;100808.00;2062899;28;45379;-64
2023/01/20 01:00:15;;;;;;;;;20.00;14.25;;;;;6.27;66.32;100808.00;2090651;27;46270;-64
2023/01/20 01:01:16;;;;;;;;;18.80;18.00;;;;;6.28;66.19;100807.09;2101152;27;46318;-64
2023/01/20 01:02:16;;;;;;;;;19.00;18.25;;;;;6.27;66.49;100814.13;2107584;27;45875;-64
2023/01/20 01:03:17;;;;;;;;;16.25;15.75;;;;;6.28;66.27;100804.47;2095268;27;46522;-63
2023/01/20 01:04:17;;;;;;;;;18.75;17.00;;;;;6.28;66.15;100809.75;2092852;27;46621;-64
2023/01/20 01:05:17;;;;;;;;;18.25;16.25;;;;;6.27;66.18;100814.13;2097043;27;46702;-65
2023/01/20 01:06:18;;;;;;;;;15.25;14.50;;;;;6.26;65.88;100800.97;2097203;27;46703;-65
2023/01/20 01:07:18;;;;;;;;;22.00;17.50;;;;;6.23;66.11;100801.84;2070311;28;46307;-65
2023/01/20 01:08:19;;;;;;;;;20.00;16.25;;;;;6.20;65.88;100802.72;2077583;28;46293;-63
2023/01/20 01:09:20;;;;;;;;;17.50;14.75;;;;;6.20;65.70;100809.75;2079369;28;46393;-64
2023/01/20 01:10:21;;;;;;;;;15.60;14.20;;;;;6.19;66.09;100806.25;2108046;27;46440;-63
2023/01/20 01:11:21;;;;;;;;;17.50;14.75;;;;;6.19;66.00;100813.28;2088064;27;46477;-65
2023/01/20 01:12:21;;;;;;;;;14.00;14.00;;;;;6.19;65.92;100815.91;2110243;27;45548;-64
2023/01/20 01:13:22;;;;;;;;;16.75;16.75;;;;;6.17;65.79;100813.28;2101433;27;45831;-64
2023/01/20 01:14:22;;;;;;;;;17.50;17.25;;;;;6.15;65.90;100814.16;2089346;28;46239;-65
2023/01/20 01:15:22;;;;;;;;;14.75;14.75;;;;;6.13;66.09;100814.16;2104450;28;46617;-65
2023/01/20 01:16:23;;;;;;;;;16.75;16.25;;;;;6.13;66.49;100813.28;2097958;27;46615;-65
2023/01/20 01:17:23;;;;;;;;;17.75;17.00;;;;;6.11;66.22;100815.06;2103732;27;46896;-64
2023/01/20 01:18:24;;;;;;;;;18.75;17.00;;;;;6.11;66.11;100813.31;2070029;28;47932;-64
2023/01/20 01:19:24;;;;;;;;;19.00;18.00;;;;;6.11;65.79;100823.84;2078249;28;46344;-65
2023/01/20 01:20:26;;;;;;;;;16.00;14.75;;;;;6.10;66.02;100824.72;2083117;27;46719;-64
2023/01/20 01:21:26;;;;;;;;;15.40;12.80;;;;;6.09;66.33;100830.84;2089715;27;45310;-63
2023/01/20 01:22:27;;;;;;;;;21.25;18.25;;;;;6.08;66.07;100828.22;2070830;28;46244;-65
2023/01/20 01:23:27;;;;;;;;;17.00;13.25;;;;;6.07;66.31;100824.72;2078927;28;45613;-64
2023/01/20 01:24:27;;;;;;;;;19.25;18.00;;;;;6.07;65.92;100829.09;2074251;27;45870;-63
2023/01/20 01:25:28;;;;;;;;;16.50;14.50;;;;;6.07;66.22;100826.47;2070008;28;46263;-65
2023/01/20 01:26:28;;;;;;;;;21.00;19.00;;;;;6.05;66.28;100828.22;2098916;28;46389;-65
2023/01/20 01:27:28;;;;;;;;;20.50;18.25;;;;;6.03;66.20;100827.34;2075269;28;46289;-63
2023/01/20 01:28:29;;;;;;;;;18.75;16.50;;;;;6.03;66.00;100833.50;2071294;28;46175;-63
2023/01/20 01:29:29;;;;;;;;;24.00;17.75;;;;;6.02;66.12;100828.25;2102442;27;46528;-65
2023/01/20 01:30:29;;;;;;;;;15.75;15.75;;;;;6.01;66.14;100834.38;2089838;28;45843;-64
2023/01/20 01:31:30;;;;;;;;;24.00;19.75;;;;;6.00;65.97;100840.53;2073016;28;46949;-64
2023/01/20 01:32:30;;;;;;;;;18.50;18.00;;;;;5.98;66.26;100837.03;2076378;28;46700;-64
2023/01/20 01:33:32;;;;;;;;;21.00;21.00;;;;;5.97;66.22;100835.25;2058390;28;46770;-63
2023/01/20 01:34:32;;;;;;;;;19.00;19.00;;;;;5.97;65.97;100837.88;2109675;27;46566;-65
2023/01/20 01:35:33;;;;;;;;;22.00;20.00;;;;;5.96;65.98;100837.00;2096633;27;45607;-65
2023/01/20 01:36:33;;;;;;;;;20.00;20.00;;;;;5.96;66.24;100846.66;2110672;27;46460;-64
2023/01/20 01:37:33;;;;;;;;;21.75;20.75;;;;;5.98;66.15;100855.47;2072188;27;46856;-64
2023/01/20 01:38:34;;;;;;;;;22.75;21.00;;;;;5.98;66.47;100861.63;2076964;27;44980;-63
2023/01/20 01:39:34;;;;;;;;;24.75;19.00;;;;;5.99;66.34;100862.50;2114078;27;46697;-65
2023/01/20 01:40:35;;;;;;;;;21.75;21.00;;;;;6.01;66.08;100863.38;2080964;27;46498;-65
2023/01/20 01:41:35;;;;;;;;;19.50;18.25;;;;;6.00;65.98;100862.50;2078754;27;45771;-65
2023/01/20 01:42:35;;;;;;;;;19.75;18.00;;;;;6.00;66.41;100861.63;2109621;27;46257;-64
2023/01/20 01:43:37;;;;;;;;;16.50;16.50;;;;;6.02;66.41;100865.13;2081377;27;46200;-65
2023/01/20 01:45:07;;;;;;;;;21.20;18.80;;;;;6.02;66.28;100860.72;2061087;28;46129;-64
2023/01/20 01:46:07;;;;;;;;;21.00;20.40;;;;;6.03;66.17;100866.88;2066043;28;46740;-65
2023/01/20 01:47:08;;;;;;;;;17.00;16.00;;;;;6.04;66.19;100866.00;2070103;28;46575;-64
2023/01/20 01:48:09;;;;;;;;;23.75;22.25;;;;;6.04;66.37;100866.88;2075812;27;46527;-65
2023/01/20 01:49:16;;;;;;;;;20.20;18.80;;;;;6.04;66.56;100872.13;2070450;28;46386;-65
2023/01/20 01:50:22;;;;;;;;;10.80;10.60;;;;;6.04;66.14;100868.63;2069419;28;46628;-64
2023/01/20 01:51:27;;;;;;;;;27.00;22.20;;;;;6.04;66.34;100873.91;2070773;28;46022;-64
2023/01/20 01:52:28;;;;;;;;;22.00;20.40;;;;;6.03;65.91;100878.28;2062514;28;45056;-65
2023/01/20 01:53:35;;;;;;;;;16.20;14.00;;;;;6.03;66.48;100874.78;2061765;28;45654;-66
2023/01/20 01:54:42;;;;;;;;;23.80;16.40;;;;;6.03;66.72;100880.03;2077138;28;45972;-65
2023/01/20 01:55:46;;;;;;;;;20.80;19.00;;;;;6.04;66.80;100882.69;2070417;28;46823;-65
2023/01/20 01:56:48;;;;;;;;;17.20;16.60;;;;;6.04;66.51;100882.69;2070549;28;46860;-65
2023/01/20 01:57:50;;;;;;;;;22.60;21.00;;;;;6.04;66.63;100877.41;2058071;28;46053;-65
2023/01/20 01:58:55;;;;;;;;;31.80;25.80;;;;;6.05;66.15;100876.53;2063566;28;46307;-65
2023/01/20 01:59:56;;;;;;;;;19.80;19.80;;;;;6.05;66.48;100886.19;2071581;28;46304;-64
2023/01/20 02:00:57;;;;;;;;;21.75;20.25;;;;;6.05;66.20;100881.78;2070906;28;45799;-65
2023/01/20 02:01:57;;;;;;;;;21.00;21.00;;;;;6.05;66.56;100873.88;2074653;27;46658;-65
2023/01/20 02:02:58;;;;;;;;;25.50;23.75;;;;;6.04;66.57;100873.91;2073321;28;45860;-65
2023/01/20 02:04:05;;;;;;;;;20.25;20.00;;;;;6.02;66.37;100881.81;2069842;27;45672;-64
2023/01/20 02:05:06;;;;;;;;;25.40;22.20;;;;;6.02;66.45;100875.66;2069924;28;46634;-64
2023/01/20 02:06:08;;;;;;;;;21.50;19.00;;;;;6.01;66.63;100885.31;2070696;28;46108;-66
2023/01/20 02:07:14;;;;;;;;;16.60;14.80;;;;;6.02;66.14;100883.56;2070493;28;46281;-65
2023/01/20 02:08:14;;;;;;;;;24.00;23.20;;;;;6.00;66.22;100880.94;2062385;28;46358;-65
2023/01/20 02:09:15;;;;;;;;;24.75;19.50;;;;;5.98;66.35;100882.69;2066022;27;45637;-64
2023/01/20 02:10:16;;;;;;;;;19.50;17.75;;;;;5.99;66.72;100891.47;2069405;28;46285;-65
2023/01/20 02:11:16;;;;;;;;;23.20;21.80;;;;;6.00;66.58;100893.22;2063646;28;46484;-64
2023/01/20 02:12:20;;;;;;;;;13.50;12.00;;;;;6.00;66.44;100893.22;2070254;27;46085;-65
2023/01/20 02:13:21;;;;;;;;;22.00;20.60;;;;;6.00;66.44;100888.84;2070317;27;46407;-63
2023/01/20 02:14:27;;;;;;;;;22.75;22.25;;;;;6.00;66.52;100896.75;2064300;28;47576;-65
2023/01/20 02:15:36;;;;;;;;;21.20;20.40;;;;;6.00;65.98;100893.22;2062214;28;47033;-64
2023/01/20 02:16:51;;;;;;;;;23.00;20.00;;;;;5.97;66.37;100893.19;2062347;28;46373;-63
2023/01/20 02:18:07;;;;;;;;;18.60;17.60;;;;;5.95;66.05;100903.75;2061900;28;46711;-62
2023/01/20 02:19:32;;;;;;;;;21.40;20.20;;;;;5.90;66.28;100897.59;2062200;28;46490;-64
2023/01/20 02:21:13;;;;;;;;;25.20;21.00;;;;;5.84;66.16;100894.94;2062161;28;45277;-64
2023/01/20 02:22:28;;;;;;;;;21.60;20.00;;;;;5.76;66.22;100902.84;2064964;28;46779;-65
2023/01/20 02:23:49;;;;;;;;;24.20;21.60;;;;;5.73;66.01;100907.22;2070578;28;46012;-65
2023/01/20 02:25:13;;;;;;;;;18.40;17.80;;;;;5.67;66.18;100894.03;2070191;27;46074;-64
2023/01/20 02:26:31;;;;;;;;;19.00;17.00;;;;;5.64;66.38;100894.06;2062392;28;46913;-63
2023/01/20 02:28:05;;;;;;;;;15.80;15.80;;;;;5.59;66.42;100904.59;2068597;28;46573;-65
2023/01/20 02:29:43;;;;;;;;;19.00;17.00;;;;;5.57;66.70;100901.91;2073568;27;46456;-64
2023/01/20 02:31:01;;;;;;;;;19.80;19.20;;;;;5.59;66.77;100908.09;2106325;27;45802;-64
2023/01/20 02:32:22;;;;;;;;;20.40;19.60;;;;;5.60;66.61;100908.97;2113310;27;46362;-65
2023/01/20 02:33:50;;;;;;;;;20.60;18.40;;;;;5.61;66.37;100914.22;2071031;28;46555;-64
2023/01/20 02:35:03;;;;;;;;;21.80;18.80;;;;;5.63;66.50;100913.34;2081863;27;46936;-65
2023/01/20 02:36:08;;;;;;;;;26.80;22.00;;;;;5.63;66.65;100908.97;2113443;27;46453;-64
2023/01/20 02:37:29;;;;;;;;;21.00;17.60;;;;;5.66;66.65;100915.97;2112623;27;46301;-63
2023/01/20 02:38:38;;;;;;;;;24.00;19.60;;;;;5.67;66.92;100923.00;2093273;27;46716;-65
2023/01/20 02:40:03;;;;;;;;;22.40;21.20;;;;;5.69;66.67;100919.50;2081704;27;45950;-64
2023/01/20 02:41:27;;;;;;;;;22.00;20.20;;;;;5.73;66.99;100933.56;2078874;27;45165;-64
2023/01/20 02:42:36;;;;;;;;;19.40;17.80;;;;;5.73;66.60;100929.19;2077868;28;46685;-64
2023/01/20 02:43:37;;;;;;;;;20.80;17.80;;;;;5.73;67.12;100929.19;2079726;27;46089;-64
2023/01/20 02:44:48;;;;;;;;;22.00;20.75;;;;;5.74;66.41;100927.41;2071330;28;46722;-65
2023/01/20 02:45:52;;;;;;;;;21.60;20.60;;;;;5.74;66.53;100925.66;2105026;27;46534;-65
2023/01/20 02:47:01;;;;;;;;;24.40;20.40;;;;;5.75;66.70;100927.41;2093177;27;46927;-64
2023/01/20 02:48:21;;;;;;;;;20.80;18.40;;;;;5.76;66.78;100926.53;2101134;27;46449;-64
2023/01/20 02:49:33;;;;;;;;;20.80;18.80;;;;;5.78;66.77;100931.81;2062235;28;46596;-64
2023/01/20 02:50:44;;;;;;;;;28.40;26.40;;;;;5.79;66.64;100929.16;2102907;27;46377;-64
2023/01/20 02:51:54;;;;;;;;;25.80;24.00;;;;;5.80;66.82;100932.69;2089604;27;46600;-64
2023/01/20 02:52:58;;;;;;;;;27.00;24.40;;;;;5.80;67.17;100930.03;2101398;27;47174;-64
2023/01/20 02:54:03;;;;;;;;;33.00;29.60;;;;;5.81;66.85;100937.06;2078204;28;45657;-65
2023/01/20 02:55:08;;;;;;;;;25.60;19.60;;;;;5.82;66.83;100936.19;2087418;27;46566;-65
2023/01/20 02:56:10;;;;;;;;;27.40;24.40;;;;;5.84;67.29;100932.69;2100576;27;46709;-66
2023/01/20 02:57:16;;;;;;;;;27.40;26.80;;;;;5.87;67.11;100934.47;2108230;27;45959;-64
2023/01/20 02:58:20;;;;;;;;;26.80;23.20;;;;;5.89;67.24;100937.97;2094033;27;46966;-66
2023/01/20 02:59:25;;;;;;;;;24.60;21.20;;;;;5.89;66.83;100935.34;2099812;27;46539;-65
2023/01/20 03:00:32;;;;;;;;;25.80;24.80;;;;;5.90;67.02;100935.34;2103571;27;46324;-65
2023/01/20 03:01:37;;;;;;;;;31.40;26.00;;;;;5.91;66.60;100941.50;2090732;27;46680;-65
2023/01/20 03:02:40;;;;;;;;;27.40;26.40;;;;;5.91;67.11;100938.88;2077636;27;45616;-64
2023/01/20 03:03:45;;;;;;;;;25.00;23.40;;;;;5.91;66.76;100933.59;2103397;27;45928;-64
2023/01/20 03:04:54;;;;;;;;;28.80;27.60;;;;;5.90;66.82;100934.47;2080579;27;46933;-64
2023/01/20 03:05:58;;;;;;;;;28.20;26.80;;;;;5.90;66.57;100932.72;2078047;28;47124;-64
2023/01/20 03:07:00;;;;;;;;;30.60;30.40;;;;;5.91;66.85;100930.97;2073169;28;45765;-65
2023/01/20 03:08:06;;;;;;;;;28.00;25.60;;;;;5.90;66.71;100935.34;2078498;27;46522;-64
2023/01/20 03:09:11;;;;;;;;;29.60;25.20;;;;;5.88;67.11;100929.19;2079069;28;45545;-64
2023/01/20 03:10:17;;;;;;;;;27.60;26.60;;;;;5.85;66.91;100930.94;2084173;27;45193;-64
2023/01/20 03:11:18;;;;;;;;;33.60;27.40;;;;;5.85;66.78;100939.72;2085188;27;45188;-64
2023/01/20 03:12:25;;;;;;;;;31.75;30.75;;;;;5.85;66.98;100938.84;2078429;27;45943;-64
2023/01/20 03:13:35;;;;;;;;;30.20;25.40;;;;;5.84;66.54;100944.97;2084805;27;46756;-65
2023/01/20 03:14:35;;;;;;;;;33.20;26.60;;;;;5.81;66.71;100951.13;2084240;27;46406;-64
2023/01/20 03:15:48;;;;;;;;;31.75;27.75;;;;;5.79;66.63;100963.41;2070522;28;45499;-64
2023/01/20 03:16:49;;;;;;;;;32.60;28.00;;;;;5.79;67.20;100959.88;2085522;27;45855;-63
2023/01/20 03:17:50;;;;;;;;;32.00;28.25;;;;;5.78;66.74;100959.00;2085751;27;46656;-64
2023/01/20 03:18:52;;;;;;;;;39.20;32.20;;;;;5.79;66.80;100959.88;2076535;28;45909;-64
2023/01/20 03:19:53;;;;;;;;;32.20;31.20;;;;;5.78;67.06;100959.00;2084572;27;46510;-63
2023/01/20 03:20:55;;;;;;;;;36.20;30.60;;;;;5.79;67.00;100957.25;2086188;27;46817;-64
2023/01/20 03:21:56;;;;;;;;;26.40;24.00;;;;;5.78;67.42;100966.03;2065570;28;47270;-64
2023/01/20 03:22:57;;;;;;;;;35.00;31.00;;;;;5.79;66.98;100966.03;2076015;27;46707;-65
2023/01/20 03:24:00;;;;;;;;;32.75;31.50;;;;;5.80;67.40;100966.91;2078049;27;46592;-64
2023/01/20 03:25:02;;;;;;;;;31.40;27.60;;;;;5.79;66.90;100973.94;2081539;27;46187;-64
2023/01/20 03:26:13;;;;;;;;;34.60;29.00;;;;;5.78;67.41;100972.19;2082723;27;46968;-64
2023/01/20 03:27:14;;;;;;;;;31.80;27.60;;;;;5.77;66.83;100969.56;2079660;27;47615;-64
2023/01/20 03:28:14;;;;;;;;;31.75;29.75;;;;;5.75;67.01;100963.41;2073268;27;45714;-64
2023/01/20 03:29:17;;;;;;;;;31.25;26.00;;;;;5.72;67.23;100963.41;2078287;27;46002;-65
2023/01/20 03:30:17;;;;;;;;;28.00;25.80;;;;;5.69;67.16;100966.00;2078609;28;46553;-65
2023/01/20 03:31:28;;;;;;;;;31.75;30.75;;;;;5.67;66.75;100968.66;2082973;27;46787;-64
2023/01/20 03:32:31;;;;;;;;;31.00;29.20;;;;;5.65;66.96;100967.75;2080287;27;46852;-64
2023/01/20 03:33:32;;;;;;;;;27.40;24.00;;;;;5.65;66.96;100961.63;2070067;28;45883;-65
2023/01/20 03:34:35;;;;;;;;;32.00;30.00;;;;;5.66;67.32;100973.91;2081129;27;46442;-65
2023/01/20 03:35:36;;;;;;;;;28.60;28.60;;;;;5.65;67.31;100973.03;2086189;27;45727;-64
2023/01/20 03:36:40;;;;;;;;;23.60;20.60;;;;;5.65;66.63;100974.78;2077295;27;46625;-64
2023/01/20 03:37:42;;;;;;;;;32.00;26.40;;;;;5.61;67.20;100974.78;2100722;27;45953;-64
2023/01/20 03:38:44;;;;;;;;;22.80;21.60;;;;;5.59;66.64;100973.91;2083756;27;47141;-64
2023/01/20 03:39:44;;;;;;;;;28.60;27.00;;;;;5.58;67.32;100980.03;2112855;27;45543;-64
2023/01/20 03:40:52;;;;;;;;;25.75;24.50;;;;;5.57;67.07;100985.28;2111960;27;46699;-65
2023/01/20 03:42:07;;;;;;;;;32.40;29.00;;;;;5.56;66.99;100984.41;2111306;27;46238;-64
2023/01/20 03:43:19;;;;;;;;;30.80;25.40;;;;;5.56;67.37;100984.41;2077917;28;46647;-64
2023/01/20 03:44:50;;;;;;;;;24.80;23.80;;;;;5.55;67.10;100987.03;2073559;27;46518;-65
2023/01/20 03:45:59;;;;;;;;;37.40;30.40;;;;;5.55;67.40;100987.03;2077099;27;46661;-65
2023/01/20 03:46:59;;;;;;;;;30.20;29.20;;;;;5.52;66.96;100990.53;2079425;27;46177;-64
2023/01/20 03:48:10;;;;;;;;;22.75;22.00;;;;;5.50;67.43;100980.91;2079431;27;45715;-63
2023/01/20 03:49:21;;;;;;;;;26.80;23.00;;;;;5.47;67.07;100984.41;2079066;27;46316;-65
2023/01/20 03:50:43;;;;;;;;;34.40;31.40;;;;;5.42;66.58;100983.47;2079443;27;46316;-64
2023/01/20 03:51:52;;;;;;;;;22.20;20.40;;;;;5.35;66.69;100999.28;2084269;27;46728;-65
2023/01/20 03:52:59;;;;;;;;;26.20;22.60;;;;;5.31;66.72;100995.72;2102555;27;45707;-66
2023/01/20 03:54:12;;;;;;;;;21.60;19.00;;;;;5.26;66.66;101000.97;2110145;27;45593;-65
2023/01/20 03:55:23;;;;;;;;;17.20;17.20;;;;;5.22;66.96;100995.69;2102914;27;46688;-64
2023/01/20 03:56:30;;;;;;;;;19.00;18.40;;;;;5.19;67.22;100993.03;2101221;27;46031;-65
2023/01/20 03:57:38;;;;;;;;;22.20;22.20;;;;;5.16;66.83;100995.66;2113882;27;46656;-65
2023/01/20 03:58:42;;;;;;;;;20.40;18.60;;;;;5.14;67.47;100990.41;2102093;27;46892;-65
2023/01/20 03:59:46;;;;;;;;;23.60;20.20;;;;;5.14;66.84;100992.16;2102831;27;46331;-65
2023/01/20 04:00:49;;;;;;;;;19.00;18.00;;;;;5.12;67.51;100997.41;2114426;27;45059;-65
2023/01/20 04:01:52;;;;;;;;;22.60;20.20;;;;;5.13;67.57;101003.53;2091672;28;46645;-63
2023/01/20 04:02:54;;;;;;;;;23.60;23.60;;;;;5.13;67.14;101004.41;2094483;27;45693;-65
2023/01/20 04:03:56;;;;;;;;;18.20;15.60;;;;;5.14;67.35;101003.53;2114088;27;46897;-64
2023/01/20 04:04:57;;;;;;;;;20.60;19.40;;;;;5.14;67.32;100998.28;2102819;27;46130;-64
2023/01/20 04:06:01;;;;;;;;;19.60;17.80;;;;;5.16;67.26;101007.06;2105471;27;46430;-64
2023/01/20 04:07:09;;;;;;;;;20.60;19.20;;;;;5.16;67.92;100998.28;2083817;27;46724;-65
2023/01/20 04:08:13;;;;;;;;;16.60;13.00;;;;;5.17;67.45;101008.81;2095471;27;46265;-63
2023/01/20 04:09:19;;;;;;;;;20.80;18.80;;;;;5.17;67.26;101003.56;2103817;27;46546;-64
2023/01/20 04:10:22;;;;;;;;;19.40;17.60;;;;;5.18;67.49;101007.06;2076667;28;46756;-64
2023/01/20 04:11:23;;;;;;;;;23.80;22.60;;;;;5.19;67.45;101007.06;2094790;27;46518;-63
2023/01/20 04:12:23;;;;;;;;;19.25;19.00;;;;;5.20;67.49;101011.44;2097059;28;45388;-64
2023/01/20 04:13:24;;;;;;;;;21.50;20.25;;;;;5.21;67.75;101015.00;2101799;28;45403;-64
2023/01/20 04:14:24;;;;;;;;;23.25;23.25;;;;;5.20;67.79;101019.34;2086151;28;45693;-64
2023/01/20 04:15:26;;;;;;;;;19.00;18.50;;;;;5.21;67.85;101015.88;2094950;28;46371;-66
2023/01/20 04:16:27;;;;;;;;;21.00;20.40;;;;;5.24;67.72;101015.00;2096006;28;45368;-65
2023/01/20 04:17:28;;;;;;;;;16.00;13.25;;;;;5.26;67.98;101014.13;2093847;28;46203;-64
2023/01/20 04:18:28;;;;;;;;;21.00;21.00;;;;;5.27;68.00;101012.38;2104348;28;45851;-64
2023/01/20 04:19:29;;;;;;;;;26.00;20.50;;;;;5.29;67.50;101008.88;2093497;28;45966;-66
2023/01/20 04:20:29;;;;;;;;;20.75;19.00;;;;;5.29;67.55;101008.88;2095687;28;46055;-65
2023/01/20 04:21:42;;;;;;;;;20.50;18.75;;;;;5.30;67.72;101013.25;2102536;28;46531;-65
2023/01/20 04:22:54;;;;;;;;;18.20;14.80;;;;;5.29;67.28;101022.03;2093001;28;45834;-66
2023/01/20 04:24:15;;;;;;;;;20.40;19.80;;;;;5.28;67.73;101025.53;2093561;28;46193;-65
2023/01/20 04:25:25;;;;;;;;;20.00;17.60;;;;;5.26;67.17;101024.66;2068826;28;47230;-65
2023/01/20 04:26:25;;;;;;;;;23.20;19.40;;;;;5.26;67.51;101023.78;2054137;28;46987;-64
2023/01/20 04:27:26;;;;;;;;;26.75;25.25;;;;;5.25;67.39;101028.16;2093085;28;45846;-65
2023/01/20 04:28:26;;;;;;;;;25.75;24.25;;;;;5.25;67.51;101020.28;2095948;28;45775;-65
2023/01/20 04:29:27;;;;;;;;;24.50;21.75;;;;;5.27;67.57;101026.41;2098644;28;46200;-65
2023/01/20 04:30:27;;;;;;;;;18.50;18.50;;;;;5.29;67.41;101027.28;2092948;28;46271;-65
2023/01/20 04:31:27;;;;;;;;;21.50;19.25;;;;;5.29;67.53;101029.94;2104136;28;46328;-65
2023/01/20 04:32:27;;;;;;;;;22.50;20.50;;;;;5.30;67.56;101029.06;2083839;28;46445;-64
2023/01/20 04:33:28;;;;;;;;;20.25;19.75;;;;;5.31;67.29;101025.53;2069980;28;45526;-64
2023/01/20 04:34:28;;;;;;;;;24.25;24.00;;;;;5.33;67.61;101028.19;2104636;28;45571;-64
2023/01/20 04:35:29;;;;;;;;;20.50;18.25;;;;;5.34;67.39;101026.47;2092742;28;45353;-64
2023/01/20 04:36:29;;;;;;;;;21.00;20.75;;;;;5.34;67.80;101027.34;2090648;28;47814;-63
2023/01/20 04:37:29;;;;;;;;;20.75;19.00;;;;;5.35;67.30;101034.34;2081256;28;46040;-64
2023/01/20 04:38:30;;;;;;;;;23.25;20.25;;;;;5.36;67.75;101030.84;2083556;28;46138;-64
2023/01/20 04:39:30;;;;;;;;;22.00;18.00;;;;;5.37;67.53;101037.88;2104561;28;46281;-64
2023/01/20 04:40:31;;;;;;;;;24.50;21.00;;;;;5.37;67.78;101037.00;2063024;28;46155;-67
2023/01/20 04:41:31;;;;;;;;;18.50;18.00;;;;;5.37;67.32;101037.00;2062336;28;46259;-65
2023/01/20 04:42:31;;;;;;;;;25.75;24.50;;;;;5.36;67.26;101044.00;2104684;28;45668;-65
2023/01/20 04:43:32;;;;;;;;;26.00;21.50;;;;;5.37;67.33;101040.50;2092145;28;46204;-65
2023/01/20 04:44:32;;;;;;;;;23.00;20.25;;;;;5.37;67.32;101045.75;2062645;28;46622;-65
2023/01/20 04:45:32;;;;;;;;;18.50;18.25;;;;;5.37;67.25;101045.75;2088120;28;46801;-63
2023/01/20 04:46:33;;;;;;;;;25.25;20.50;;;;;5.36;67.03;101044.00;2089637;28;45720;-64
2023/01/20 04:47:33;;;;;;;;;27.50;24.50;;;;;5.38;67.30;101046.66;2102294;28;46211;-63
2023/01/20 04:48:34;;;;;;;;;29.75;25.75;;;;;5.37;66.83;101035.25;2077710;28;46468;-65
2023/01/20 04:49:34;;;;;;;;;21.75;20.50;;;;;5.39;67.19;101040.50;2088010;28;46301;-65
2023/01/20 04:50:39;;;;;;;;;19.25;19.25;;;;;5.38;66.78;101037.00;2096043;27;47816;-65
2023/01/20 04:51:39;;;;;;;;;25.00;20.80;;;;;5.38;67.24;101046.66;2085821;27;46060;-63
2023/01/20 04:52:40;;;;;;;;;24.75;22.00;;;;;5.37;66.71;101037.88;2113020;27;45441;-65
2023/01/20 04:53:40;;;;;;;;;21.25;21.00;;;;;5.37;67.16;101039.63;2088869;28;45932;-65
2023/01/20 04:54:40;;;;;;;;;25.50;23.75;;;;;5.36;66.97;101045.75;2096556;28;46547;-65